sensor_id;sensor_type;location;lat;lon;timestamp;pressure;altitude;pressure_sealevel;temperature;humidity
6216;BME280;3141;49.234;9.326;2023-03-01T00:00:03;100574.63;;;2.48;61.64
6216;BME280;3141;49.234;9.326;2023-03-01T00:00:45;100571.91;;;2.49;61.51
6216;BME280;3141;49.234;9.326;2023-03-01T00:01:30;100575.13;;;2.54;61.72
6216;BME280;3141;49.234;9.326;2023-03-01T00:02:13;100574.22;;;2.55;61.75
6216;BME280;3141;49.234;9.326;2023-03-01T00:02:55;100569.75;;;2.57;61.46
6216;BME280;3141;49.234;9.326;2023-03-01T00:03:38;100574.28;;;2.54;62.03
6216;BME280;3141;49.234;9.326;2023-03-01T00:04:20;100567.56;;;2.50;61.82
6216;BME280;3141;49.234;9.326;2023-03-01T00:05:03;100569.22;;;2.51;62.01
6216;BME280;3141;49.234;9.326;2023-03-01T00:05:47;100570.75;;;2.55;61.26
6216;BME280;3141;49.234;9.326;2023-03-01T00:06:29;100573.28;;;2.56;61.61
6216;BME280;3141;49.234;9.326;2023-03-01T00:07:12;100572.50;;;2.54;61.65
6216;BME280;3141;49.234;9.326;2023-03-01T00:07:54;100572.41;;;2.56;61.72
6216;BME280;3141;49.234;9.326;2023-03-01T00:08:37;100569.06;;;2.54;61.68
6216;BME280;3141;49.234;9.326;2023-03-01T00:09:19;100575.78;;;2.58;61.69
6216;BME280;3141;49.234;9.326;2023-03-01T00:10:02;100575.97;;;2.55;61.73
6216;BME280;3141;49.234;9.326;2023-03-01T00:10:45;100574.63;;;2.48;62.32
6216;BME280;3141;49.234;9.326;2023-03-01T00:11:29;100576.47;;;2.46;62.26
6216;BME280;3141;49.234;9.326;2023-03-01T00:12:12;100576.72;;;2.57;61.80
6216;BME280;3141;49.234;9.326;2023-03-01T00:12:54;100582.63;;;2.60;61.93
6216;BME280;3141;49.234;9.326;2023-03-01T00:13:38;100583.78;;;2.55;61.86
6216;BME280;3141;49.234;9.326;2023-03-01T00:14:21;100579.75;;;2.49;61.85
6216;BME280;3141;49.234;9.326;2023-03-01T00:15:03;100583.38;;;2.47;62.37
6216;BME280;3141;49.234;9.326;2023-03-01T00:15:46;100584.19;;;2.47;62.21
6216;BME280;3141;49.234;9.326;2023-03-01T00:16:31;100583.88;;;2.53;62.56
6216;BME280;3141;49.234;9.326;2023-03-01T00:17:15;100575.78;;;2.58;61.77
6216;BME280;3141;49.234;9.326;2023-03-01T00:17:57;100581.59;;;2.63;61.94
6216;BME280;3141;49.234;9.326;2023-03-01T00:18:40;100576.81;;;2.71;61.92
6216;BME280;3141;49.234;9.326;2023-03-01T00:19:22;100576.72;;;2.72;61.13
6216;BME280;3141;49.234;9.326;2023-03-01T00:20:05;100579.66;;;2.66;61.95
6216;BME280;3141;49.234;9.326;2023-03-01T00:20:53;100580.00;;;2.60;61.85
6216;BME280;3141;49.234;9.326;2023-03-01T00:21:36;100580.84;;;2.61;61.84
6216;BME280;3141;49.234;9.326;2023-03-01T00:22:18;100586.69;;;2.66;61.71
6216;BME280;3141;49.234;9.326;2023-03-01T00:23:01;100578.66;;;2.53;62.18
6216;BME280;3141;49.234;9.326;2023-03-01T00:23:43;100581.69;;;2.61;61.92
6216;BME280;3141;49.234;9.326;2023-03-01T00:24:26;100576.97;;;2.68;61.92
6216;BME280;3141;49.234;9.326;2023-03-01T00:25:08;100585.38;;;2.73;61.42
6216;BME280;3141;49.234;9.326;2023-03-01T00:25:51;100577.22;;;2.79;61.50
6216;BME280;3141;49.234;9.326;2023-03-01T00:26:33;100584.72;;;2.85;60.89
6216;BME280;3141;49.234;9.326;2023-03-01T00:27:16;100583.03;;;2.84;61.18
6216;BME280;3141;49.234;9.326;2023-03-01T00:27:58;100579.47;;;2.85;60.56
6216;BME280;3141;49.234;9.326;2023-03-01T00:28:41;100578.75;;;2.83;60.68
6216;BME280;3141;49.234;9.326;2023-03-01T00:29:25;100583.13;;;2.82;60.88
6216;BME280;3141;49.234;9.326;2023-03-01T00:30:08;100578.00;;;2.81;61.04
6216;BME280;3141;49.234;9.326;2023-03-01T00:30:50;100578.09;;;2.79;60.83
6216;BME280;3141;49.234;9.326;2023-03-01T00:31:33;100586.00;;;2.62;61.61
6216;BME280;3141;49.234;9.326;2023-03-01T00:32:15;100580.16;;;2.73;61.85
6216;BME280;3141;49.234;9.326;2023-03-01T00:32:57;100585.25;;;2.76;61.43
6216;BME280;3141;49.234;9.326;2023-03-01T00:33:40;100581.47;;;2.81;60.83
6216;BME280;3141;49.234;9.326;2023-03-01T00:34:22;100588.84;;;2.89;60.59
6216;BME280;3141;49.234;9.326;2023-03-01T00:35:05;100591.44;;;2.89;60.38
6216;BME280;3141;49.234;9.326;2023-03-01T00:35:47;100585.56;;;2.85;61.02
6216;BME280;3141;49.234;9.326;2023-03-01T00:36:36;100588.50;;;2.95;60.59
6216;BME280;3141;49.234;9.326;2023-03-01T00:37:18;100583.53;;;2.90;60.47
6216;BME280;3141;49.234;9.326;2023-03-01T00:38:01;100586.81;;;2.94;60.46
6216;BME280;3141;49.234;9.326;2023-03-01T00:38:45;100591.72;;;3.00;60.46
6216;BME280;3141;49.234;9.326;2023-03-01T00:39:27;100587.00;;;2.91;60.48
6216;BME280;3141;49.234;9.326;2023-03-01T00:40:10;100580.16;;;2.88;60.92
6216;BME280;3141;49.234;9.326;2023-03-01T00:40:53;100585.91;;;2.79;60.90
6216;BME280;3141;49.234;9.326;2023-03-01T00:41:35;100586.72;;;2.80;61.21
6216;BME280;3141;49.234;9.326;2023-03-01T00:42:17;100579.25;;;2.74;61.32
6216;BME280;3141;49.234;9.326;2023-03-01T00:43:00;100576.72;;;2.72;61.03
6216;BME280;3141;49.234;9.326;2023-03-01T00:43:43;100584.47;;;2.74;61.59
6216;BME280;3141;49.234;9.326;2023-03-01T00:44:26;100580.59;;;2.81;61.21
6216;BME280;3141;49.234;9.326;2023-03-01T00:45:09;100588.25;;;2.84;61.04
6216;BME280;3141;49.234;9.326;2023-03-01T00:45:51;100592.47;;;2.86;61.04
6216;BME280;3141;49.234;9.326;2023-03-01T00:46:33;100582.44;;;2.79;61.07
6216;BME280;3141;49.234;9.326;2023-03-01T00:47:16;100587.25;;;2.71;61.32
6216;BME280;3141;49.234;9.326;2023-03-01T00:47:58;100587.59;;;2.65;61.24
6216;BME280;3141;49.234;9.326;2023-03-01T00:48:41;100589.28;;;2.66;61.83
6216;BME280;3141;49.234;9.326;2023-03-01T00:49:23;100588.25;;;2.68;61.37
6216;BME280;3141;49.234;9.326;2023-03-01T00:50:10;100589.78;;;2.72;61.47
6216;BME280;3141;49.234;9.326;2023-03-01T00:50:53;100597.03;;;2.67;61.81
6216;BME280;3141;49.234;9.326;2023-03-01T00:51:35;100593.56;;;2.67;61.89
6216;BME280;3141;49.234;9.326;2023-03-01T00:52:18;100593.47;;;2.68;61.40
6216;BME280;3141;49.234;9.326;2023-03-01T00:53:00;100593.97;;;2.59;61.74
6216;BME280;3141;49.234;9.326;2023-03-01T00:53:43;100597.19;;;2.64;61.58
6216;BME280;3141;49.234;9.326;2023-03-01T00:54:25;100590.03;;;2.68;61.78
6216;BME280;3141;49.234;9.326;2023-03-01T00:55:08;100599.78;;;2.64;61.25
6216;BME280;3141;49.234;9.326;2023-03-01T00:55:50;100597.84;;;2.68;61.61
6216;BME280;3141;49.234;9.326;2023-03-01T00:56:33;100597.84;;;2.52;61.71
6216;BME280;3141;49.234;9.326;2023-03-01T00:57:15;100596.94;;;2.53;61.97
6216;BME280;3141;49.234;9.326;2023-03-01T00:57:57;100590.09;;;2.51;62.69
6216;BME280;3141;49.234;9.326;2023-03-01T00:58:40;100592.63;;;2.52;62.67
6216;BME280;3141;49.234;9.326;2023-03-01T00:59:22;100598.69;;;2.53;62.40
6216;BME280;3141;49.234;9.326;2023-03-01T01:00:06;100598.19;;;2.62;62.38
6216;BME280;3141;49.234;9.326;2023-03-01T01:00:49;100589.69;;;2.58;62.35
6216;BME280;3141;49.234;9.326;2023-03-01T01:01:31;100593.06;;;2.60;62.69
6216;BME280;3141;49.234;9.326;2023-03-01T01:02:13;100589.88;;;2.55;62.06
6216;BME280;3141;49.234;9.326;2023-03-01T01:02:56;100587.75;;;2.62;62.19
6216;BME280;3141;49.234;9.326;2023-03-01T01:03:38;100590.97;;;2.67;62.27
6216;BME280;3141;49.234;9.326;2023-03-01T01:04:20;100588.00;;;2.73;61.80
6216;BME280;3141;49.234;9.326;2023-03-01T01:05:04;100585.75;;;2.67;61.56
6216;BME280;3141;49.234;9.326;2023-03-01T01:05:46;100580.50;;;2.67;61.94
6216;BME280;3141;49.234;9.326;2023-03-01T01:06:37;100577.63;;;2.56;62.03
6216;BME280;3141;49.234;9.326;2023-03-01T01:07:20;100579.56;;;2.68;61.71
6216;BME280;3141;49.234;9.326;2023-03-01T01:08:02;100577.22;;;2.63;61.97
6216;BME280;3141;49.234;9.326;2023-03-01T01:08:45;100573.19;;;2.58;62.09
6216;BME280;3141;49.234;9.326;2023-03-01T01:09:27;100575.97;;;2.55;62.31
6216;BME280;3141;49.234;9.326;2023-03-01T01:10:10;100577.13;;;2.49;62.83
6216;BME280;3141;49.234;9.326;2023-03-01T01:10:58;100571.50;;;2.41;63.07
6216;BME280;3141;49.234;9.326;2023-03-01T01:11:41;100573.09;;;2.44;63.09
6216;BME280;3141;49.234;9.326;2023-03-01T01:12:23;100575.28;;;2.35;62.96
6216;BME280;3141;49.234;9.326;2023-03-01T01:13:05;100577.56;;;2.42;63.54
6216;BME280;3141;49.234;9.326;2023-03-01T01:13:48;100574.63;;;2.48;63.16
6216;BME280;3141;49.234;9.326;2023-03-01T01:14:31;100574.63;;;2.48;62.68
6216;BME280;3141;49.234;9.326;2023-03-01T01:15:14;100572.78;;;2.50;62.58
6216;BME280;3141;49.234;9.326;2023-03-01T01:16:01;100573.34;;;2.55;62.40
6216;BME280;3141;49.234;9.326;2023-03-01T01:16:44;100568.91;;;2.57;62.74
6216;BME280;3141;49.234;9.326;2023-03-01T01:17:26;100571.44;;;2.58;62.53
6216;BME280;3141;49.234;9.326;2023-03-01T01:18:09;100573.94;;;2.60;62.56
6216;BME280;3141;49.234;9.326;2023-03-01T01:18:51;100574.88;;;2.59;62.43
6216;BME280;3141;49.234;9.326;2023-03-01T01:19:34;100570.56;;;2.58;62.65
6216;BME280;3141;49.234;9.326;2023-03-01T01:20:16;100575.63;;;2.61;62.07
6216;BME280;3141;49.234;9.326;2023-03-01T01:21:05;100578.16;;;2.62;62.21
6216;BME280;3141;49.234;9.326;2023-03-01T01:21:47;100564.94;;;2.50;62.81
6216;BME280;3141;49.234;9.326;2023-03-01T01:22:30;100568.47;;;2.49;62.97
6216;BME280;3141;49.234;9.326;2023-03-01T01:23:12;100566.22;;;2.58;62.42
6216;BME280;3141;49.234;9.326;2023-03-01T01:23:55;100575.63;;;2.61;62.40
6216;BME280;3141;49.234;9.326;2023-03-01T01:24:38;100566.03;;;2.61;62.34
6216;BME280;3141;49.234;9.326;2023-03-01T01:25:21;100567.56;;;2.50;62.37
6216;BME280;3141;49.234;9.326;2023-03-01T01:26:24;100565.78;;;2.50;62.84
6216;BME280;3141;49.234;9.326;2023-03-01T01:27:07;100562.56;;;2.45;63.08
6216;BME280;3141;49.234;9.326;2023-03-01T01:27:49;100569.47;;;2.46;63.35
6216;BME280;3141;49.234;9.326;2023-03-01T01:28:32;100559.31;;;2.42;63.24
6216;BME280;3141;49.234;9.326;2023-03-01T01:29:14;100568.72;;;2.44;63.17
6216;BME280;3141;49.234;9.326;2023-03-01T01:29:57;100561.16;;;2.40;63.36
6216;BME280;3141;49.234;9.326;2023-03-01T01:30:39;100562.81;;;2.41;63.58
6216;BME280;3141;49.234;9.326;2023-03-01T01:31:22;100558.69;;;2.36;63.33
6216;BME280;3141;49.234;9.326;2023-03-01T01:32:07;100556.94;;;2.37;63.36
6216;BME280;3141;49.234;9.326;2023-03-01T01:32:49;100555.94;;;2.40;63.87
6216;BME280;3141;49.234;9.326;2023-03-01T01:33:32;100555.75;;;2.43;63.44
6216;BME280;3141;49.234;9.326;2023-03-01T01:34:17;100546.31;;;2.40;63.44
6216;BME280;3141;49.234;9.326;2023-03-01T01:35:00;100548.88;;;2.42;63.61
6216;BME280;3141;49.234;9.326;2023-03-01T01:35:45;100549.78;;;2.41;63.75
6216;BME280;3141;49.234;9.326;2023-03-01T01:36:28;100547.59;;;2.49;63.45
6216;BME280;3141;49.234;9.326;2023-03-01T01:37:10;100546.41;;;2.38;63.81
6216;BME280;3141;49.234;9.326;2023-03-01T01:37:52;100540.59;;;2.33;63.66
6216;BME280;3141;49.234;9.326;2023-03-01T01:38:36;100542.88;;;2.40;63.61
6216;BME280;3141;49.234;9.326;2023-03-01T01:39:20;100544.72;;;2.38;63.68
6216;BME280;3141;49.234;9.326;2023-03-01T01:40:03;100541.78;;;2.44;63.59
6216;BME280;3141;49.234;9.326;2023-03-01T01:40:49;100549.88;;;2.39;63.99
6216;BME280;3141;49.234;9.326;2023-03-01T01:41:32;100541.94;;;2.41;63.70
6216;BME280;3141;49.234;9.326;2023-03-01T01:42:18;100540.94;;;2.43;63.48
6216;BME280;3141;49.234;9.326;2023-03-01T01:43:00;100541.63;;;2.47;63.64
6216;BME280;3141;49.234;9.326;2023-03-01T01:43:44;100535.38;;;2.49;63.05
6216;BME280;3141;49.234;9.326;2023-03-01T01:44:28;100542.88;;;2.55;62.99
6216;BME280;3141;49.234;9.326;2023-03-01T01:45:33;100542.72;;;2.58;62.73
6216;BME280;3141;49.234;9.326;2023-03-01T01:47:17;100540.59;;;2.49;62.58
6216;BME280;3141;49.234;9.326;2023-03-01T01:48:04;100534.47;;;2.50;62.75
6216;BME280;3141;49.234;9.326;2023-03-01T01:48:52;100533.72;;;2.48;62.71
6216;BME280;3141;49.234;9.326;2023-03-01T01:49:48;100529.00;;;2.55;63.01
6216;BME280;3141;49.234;9.326;2023-03-01T01:50:31;100536.72;;;2.56;62.97
6216;BME280;3141;49.234;9.326;2023-03-01T01:51:32;100528.06;;;2.56;62.93
6216;BME280;3141;49.234;9.326;2023-03-01T01:52:24;100528.59;;;2.47;63.03
6216;BME280;3141;49.234;9.326;2023-03-01T01:53:18;100528.41;;;2.50;62.88
6216;BME280;3141;49.234;9.326;2023-03-01T01:54:01;100515.69;;;2.44;63.02
6216;BME280;3141;49.234;9.326;2023-03-01T01:54:51;100522.59;;;2.45;62.78
6216;BME280;3141;49.234;9.326;2023-03-01T01:55:37;100517.56;;;2.42;63.23
6216;BME280;3141;49.234;9.326;2023-03-01T01:56:24;100518.19;;;2.45;63.12
6216;BME280;3141;49.234;9.326;2023-03-01T01:57:10;100512.41;;;2.40;63.04
6216;BME280;3141;49.234;9.326;2023-03-01T01:57:57;100509.38;;;2.48;63.03
6216;BME280;3141;49.234;9.326;2023-03-01T01:58:41;100511.13;;;2.47;62.80
6216;BME280;3141;49.234;9.326;2023-03-01T01:59:28;100512.00;;;2.48;63.00
6216;BME280;3141;49.234;9.326;2023-03-01T02:00:21;100518.19;;;2.61;62.87
6216;BME280;3141;49.234;9.326;2023-03-01T02:01:05;100515.44;;;2.64;62.36
6216;BME280;3141;49.234;9.326;2023-03-01T02:01:47;100511.50;;;2.57;62.47
6216;BME280;3141;49.234;9.326;2023-03-01T02:02:30;100512.25;;;2.59;62.72
6216;BME280;3141;49.234;9.326;2023-03-01T02:03:18;100513.41;;;2.53;62.49
6216;BME280;3141;49.234;9.326;2023-03-01T02:04:01;100513.34;;;2.55;62.87
6216;BME280;3141;49.234;9.326;2023-03-01T02:04:44;100506.84;;;2.46;62.75
6216;BME280;3141;49.234;9.326;2023-03-01T02:05:35;100504.25;;;2.30;63.48
6216;BME280;3141;49.234;9.326;2023-03-01T02:06:23;100504.16;;;2.32;63.86
6216;BME280;3141;49.234;9.326;2023-03-01T02:07:20;100504.66;;;2.38;63.32
6216;BME280;3141;49.234;9.326;2023-03-01T02:08:03;100500.03;;;2.44;63.62
6216;BME280;3141;49.234;9.326;2023-03-01T02:08:48;100507.25;;;2.54;62.87
6216;BME280;3141;49.234;9.326;2023-03-01T02:09:33;100502.53;;;2.61;62.67
6216;BME280;3141;49.234;9.326;2023-03-01T02:10:16;100495.31;;;2.66;61.98
6216;BME280;3141;49.234;9.326;2023-03-01T02:10:59;100494.88;;;2.58;62.75
6216;BME280;3141;49.234;9.326;2023-03-01T02:11:43;100499.19;;;2.59;62.54
6216;BME280;3141;49.234;9.326;2023-03-01T02:12:26;100498.25;;;2.60;62.42
6216;BME280;3141;49.234;9.326;2023-03-01T02:13:09;100499.88;;;2.62;62.18
6216;BME280;3141;49.234;9.326;2023-03-01T02:13:53;100500.56;;;2.50;62.24
6216;BME280;3141;49.234;9.326;2023-03-01T02:14:36;100503.41;;;2.46;62.37
6216;BME280;3141;49.234;9.326;2023-03-01T02:15:18;100494.13;;;2.40;63.02
6216;BME280;3141;49.234;9.326;2023-03-01T02:16:05;100494.22;;;2.38;63.19
6216;BME280;3141;49.234;9.326;2023-03-01T02:16:50;100499.63;;;2.35;62.87
6216;BME280;3141;49.234;9.326;2023-03-01T02:17:33;100498.00;;;2.33;63.36
6216;BME280;3141;49.234;9.326;2023-03-01T02:18:18;100491.63;;;2.38;62.88
6216;BME280;3141;49.234;9.326;2023-03-01T02:19:03;100500.19;;;2.41;62.87
6216;BME280;3141;49.234;9.326;2023-03-01T02:20:23;100494.97;;;2.25;63.73
6216;BME280;3141;49.234;9.326;2023-03-01T02:22:07;100494.13;;;2.40;62.61
6216;BME280;3141;49.234;9.326;2023-03-01T02:22:54;100495.06;;;2.39;62.90
6216;BME280;3141;49.234;9.326;2023-03-01T02:23:37;100492.78;;;2.33;63.21
6216;BME280;3141;49.234;9.326;2023-03-01T02:25:12;100486.75;;;2.32;63.18
6216;BME280;3141;49.234;9.326;2023-03-01T02:26:47;100484.47;;;2.26;63.01
6216;BME280;3141;49.234;9.326;2023-03-01T02:27:42;100483.88;;;2.37;62.98
6216;BME280;3141;49.234;9.326;2023-03-01T02:28:33;100484.47;;;2.42;62.96
6216;BME280;3141;49.234;9.326;2023-03-01T02:29:17;100488.69;;;2.45;62.98
6216;BME280;3141;49.234;9.326;2023-03-01T02:29:59;100478.56;;;2.38;63.00
6216;BME280;3141;49.234;9.326;2023-03-01T02:30:47;100484.81;;;2.36;62.71
6216;BME280;3141;49.234;9.326;2023-03-01T02:31:49;100479.41;;;2.23;63.04
6216;BME280;3141;49.234;9.326;2023-03-01T02:32:34;100482.13;;;2.22;63.33
6216;BME280;3141;49.234;9.326;2023-03-01T02:33:16;100476.31;;;2.17;63.84
6216;BME280;3141;49.234;9.326;2023-03-01T02:33:59;100482.34;;;2.17;63.75
6216;BME280;3141;49.234;9.326;2023-03-01T02:34:41;100483.38;;;2.15;63.56
6216;BME280;3141;49.234;9.326;2023-03-01T02:35:24;100477.97;;;2.18;63.63
6216;BME280;3141;49.234;9.326;2023-03-01T02:36:10;100475.28;;;2.19;63.78
6216;BME280;3141;49.234;9.326;2023-03-01T02:37:05;100471.78;;;2.20;64.09
6216;BME280;3141;49.234;9.326;2023-03-01T02:37:49;100476.41;;;2.15;63.55
6216;BME280;3141;49.234;9.326;2023-03-01T02:38:32;100478.84;;;2.18;63.57
6216;BME280;3141;49.234;9.326;2023-03-01T02:39:19;100472.69;;;2.19;63.56
6216;BME280;3141;49.234;9.326;2023-03-01T02:40:06;100471.09;;;2.17;64.22
6216;BME280;3141;49.234;9.326;2023-03-01T02:40:54;100474.28;;;2.22;63.70
6216;BME280;3141;49.234;9.326;2023-03-01T02:41:39;100477.66;;;2.08;63.87
6216;BME280;3141;49.234;9.326;2023-03-01T02:42:27;100462.81;;;2.09;63.89
6216;BME280;3141;49.234;9.326;2023-03-01T02:43:12;100469.16;;;2.05;64.20
6216;BME280;3141;49.234;9.326;2023-03-01T02:43:55;100467.22;;;2.08;63.68
6216;BME280;3141;49.234;9.326;2023-03-01T02:44:37;100472.94;;;2.15;63.61
6216;BME280;3141;49.234;9.326;2023-03-01T02:45:20;100461.84;;;2.11;63.34
6216;BME280;3141;49.234;9.326;2023-03-01T02:46:06;100466.88;;;2.14;63.80
6216;BME280;3141;49.234;9.326;2023-03-01T02:46:51;100468.72;;;2.12;63.34
6216;BME280;3141;49.234;9.326;2023-03-01T02:47:33;100469.56;;;2.13;63.57
6216;BME280;3141;49.234;9.326;2023-03-01T02:48:17;100473.78;;;2.15;63.49
6216;BME280;3141;49.234;9.326;2023-03-01T02:49:00;100462.41;;;2.16;63.56
6216;BME280;3141;49.234;9.326;2023-03-01T02:49:42;100458.81;;;2.19;63.57
6216;BME280;3141;49.234;9.326;2023-03-01T02:52:36;100461.47;;;2.17;62.87
6216;BME280;3141;49.234;9.326;2023-03-01T02:54:49;100462.31;;;2.02;63.49
6216;BME280;3141;49.234;9.326;2023-03-01T02:55:33;100462.31;;;2.02;63.64
6216;BME280;3141;49.234;9.326;2023-03-01T02:56:16;100453.34;;;2.08;63.27
6216;BME280;3141;49.234;9.326;2023-03-01T02:56:59;100461.84;;;2.11;62.94
6216;BME280;3141;49.234;9.326;2023-03-01T02:57:44;100458.47;;;2.09;62.97
6216;BME280;3141;49.234;9.326;2023-03-01T02:58:26;100460.31;;;2.07;63.28
6216;BME280;3141;49.234;9.326;2023-03-01T02:59:09;100454.50;;;2.02;63.12
6216;BME280;3141;49.234;9.326;2023-03-01T02:59:52;100452.91;;;2.00;63.59
6216;BME280;3141;49.234;9.326;2023-03-01T03:00:39;100457.53;;;1.95;63.68
6216;BME280;3141;49.234;9.326;2023-03-01T03:01:29;100452.56;;;1.90;63.80
6216;BME280;3141;49.234;9.326;2023-03-01T03:02:26;100453.97;;;1.80;64.55
6216;BME280;3141;49.234;9.326;2023-03-01T03:03:21;100446.75;;;1.85;64.50
6216;BME280;3141;49.234;9.326;2023-03-01T03:04:06;100450.44;;;1.81;64.39
6216;BME280;3141;49.234;9.326;2023-03-01T03:04:48;100452.38;;;1.78;64.42
6216;BME280;3141;49.234;9.326;2023-03-01T03:05:31;100458.25;;;1.81;64.47
6216;BME280;3141;49.234;9.326;2023-03-01T03:06:13;100453.91;;;1.82;64.75
6216;BME280;3141;49.234;9.326;2023-03-01T03:06:56;100448.84;;;1.79;64.80
6216;BME280;3141;49.234;9.326;2023-03-01T03:07:40;100453.22;;;1.78;65.05
6216;BME280;3141;49.234;9.326;2023-03-01T03:08:23;100453.22;;;1.78;64.80
6216;BME280;3141;49.234;9.326;2023-03-01T03:09:06;100453.03;;;1.81;64.73
6216;BME280;3141;49.234;9.326;2023-03-01T03:09:50;100452.13;;;1.82;64.96
6216;BME280;3141;49.234;9.326;2023-03-01T03:10:35;100450.59;;;1.78;65.41
6216;BME280;3141;49.234;9.326;2023-03-01T03:11:18;100448.16;;;1.75;65.45
6216;BME280;3141;49.234;9.326;2023-03-01T03:12:01;100449.72;;;1.79;65.09
6216;BME280;3141;49.234;9.326;2023-03-01T03:12:43;100447.09;;;1.79;64.96
6216;BME280;3141;49.234;9.326;2023-03-01T03:13:25;100438.16;;;1.83;64.53
6216;BME280;3141;49.234;9.326;2023-03-01T03:14:12;100451.72;;;1.74;65.00
6216;BME280;3141;49.234;9.326;2023-03-01T03:14:55;100447.00;;;1.81;65.01
6216;BME280;3141;49.234;9.326;2023-03-01T03:15:38;100442.78;;;1.78;64.83
6216;BME280;3141;49.234;9.326;2023-03-01T03:16:21;100443.63;;;1.79;64.89
6216;BME280;3141;49.234;9.326;2023-03-01T03:17:03;100446.50;;;1.74;65.14
6216;BME280;3141;49.234;9.326;2023-03-01T03:17:49;100450.00;;;1.73;65.22
6216;BME280;3141;49.234;9.326;2023-03-01T03:18:32;100449.84;;;1.76;65.21
6216;BME280;3141;49.234;9.326;2023-03-01T03:19:15;100450.78;;;1.75;65.04
6216;BME280;3141;49.234;9.326;2023-03-01T03:19:58;100452.53;;;1.75;64.98
6216;BME280;3141;49.234;9.326;2023-03-01T03:20:41;100452.38;;;1.78;64.57
6216;BME280;3141;49.234;9.326;2023-03-01T03:21:24;100449.03;;;1.76;64.57
6216;BME280;3141;49.234;9.326;2023-03-01T03:22:06;100445.81;;;1.71;64.58
6216;BME280;3141;49.234;9.326;2023-03-01T03:22:52;100444.97;;;1.70;64.89
6216;BME280;3141;49.234;9.326;2023-03-01T03:23:36;100452.38;;;1.62;64.69
6216;BME280;3141;49.234;9.326;2023-03-01T03:24:18;100451.25;;;1.66;64.72
6216;BME280;3141;49.234;9.326;2023-03-01T03:25:01;100446.97;;;1.65;64.62
6216;BME280;3141;49.234;9.326;2023-03-01T03:25:43;100442.09;;;1.59;64.39
6216;BME280;3141;49.234;9.326;2023-03-01T03:26:26;100452.97;;;1.67;64.65
6216;BME280;3141;49.234;9.326;2023-03-01T03:27:08;100443.63;;;1.63;64.58
6216;BME280;3141;49.234;9.326;2023-03-01T03:27:52;100444.78;;;1.58;64.99
6216;BME280;3141;49.234;9.326;2023-03-01T03:28:41;100447.47;;;1.56;65.00
6216;BME280;3141;49.234;9.326;2023-03-01T03:29:23;100443.00;;;1.58;65.39
6216;BME280;3141;49.234;9.326;2023-03-01T03:30:07;100447.53;;;1.55;64.99
6216;BME280;3141;49.234;9.326;2023-03-01T03:30:51;100440.25;;;1.61;64.78
6216;BME280;3141;49.234;9.326;2023-03-01T03:31:34;100437.03;;;1.56;64.92
6216;BME280;3141;49.234;9.326;2023-03-01T03:32:16;100444.00;;;1.56;65.33
6216;BME280;3141;49.234;9.326;2023-03-01T03:32:59;100437.97;;;1.55;65.39
6216;BME280;3141;49.234;9.326;2023-03-01T03:33:41;100440.41;;;1.58;65.62
6216;BME280;3141;49.234;9.326;2023-03-01T03:34:24;100440.63;;;1.54;65.48
6216;BME280;3141;49.234;9.326;2023-03-01T03:35:08;100438.03;;;1.54;65.51
6216;BME280;3141;49.234;9.326;2023-03-01T03:35:53;100440.59;;;1.55;65.49
6216;BME280;3141;49.234;9.326;2023-03-01T03:36:36;100442.25;;;1.56;65.09
6216;BME280;3141;49.234;9.326;2023-03-01T03:37:18;100436.19;;;1.56;65.40
6216;BME280;3141;49.234;9.326;2023-03-01T03:38:19;100438.53;;;1.45;65.83
6216;BME280;3141;49.234;9.326;2023-03-01T03:39:04;100433.06;;;1.49;66.00
6216;BME280;3141;49.234;9.326;2023-03-01T03:39:47;100425.25;;;1.49;66.04
6216;BME280;3141;49.234;9.326;2023-03-01T03:40:38;100428.78;;;1.48;66.04
6216;BME280;3141;49.234;9.326;2023-03-01T03:41:21;100426.69;;;1.55;66.27
6216;BME280;3141;49.234;9.326;2023-03-01T03:42:03;100428.22;;;1.59;65.71
6216;BME280;3141;49.234;9.326;2023-03-01T03:42:45;100426.78;;;1.53;65.91
6216;BME280;3141;49.234;9.326;2023-03-01T03:43:30;100421.72;;;1.50;65.67
6216;BME280;3141;49.234;9.326;2023-03-01T03:44:13;100423.88;;;1.42;66.34
6216;BME280;3141;49.234;9.326;2023-03-01T03:44:55;100420.22;;;1.46;66.24
6216;BME280;3141;49.234;9.326;2023-03-01T03:45:38;100418.28;;;1.50;66.07
6216;BME280;3141;49.234;9.326;2023-03-01T03:46:20;100418.50;;;1.45;66.78
6216;BME280;3141;49.234;9.326;2023-03-01T03:47:02;100427.44;;;1.41;66.34
6216;BME280;3141;49.234;9.326;2023-03-01T03:47:45;100425.38;;;1.31;66.71
6216;BME280;3141;49.234;9.326;2023-03-01T03:48:27;100422.69;;;1.32;66.21
6216;BME280;3141;49.234;9.326;2023-03-01T03:49:09;100417.47;;;1.32;66.51
6216;BME280;3141;49.234;9.326;2023-03-01T03:49:52;100419.75;;;1.38;66.46
6216;BME280;3141;49.234;9.326;2023-03-01T03:50:34;100422.34;;;1.38;66.86
6216;BME280;3141;49.234;9.326;2023-03-01T03:51:18;100415.66;;;1.34;66.94
6216;BME280;3141;49.234;9.326;2023-03-01T03:52:00;100416.63;;;1.32;67.08
6216;BME280;3141;49.234;9.326;2023-03-01T03:52:43;100418.34;;;1.33;67.16
6216;BME280;3141;49.234;9.326;2023-03-01T03:53:27;100412.09;;;1.35;66.78
6216;BME280;3141;49.234;9.326;2023-03-01T03:54:09;100417.16;;;1.38;66.17
6216;BME280;3141;49.234;9.326;2023-03-01T03:54:52;100413.13;;;1.33;66.41
6216;BME280;3141;49.234;9.326;2023-03-01T03:55:35;100412.78;;;1.39;66.11
6216;BME280;3141;49.234;9.326;2023-03-01T03:56:21;100412.28;;;1.32;66.08
6216;BME280;3141;49.234;9.326;2023-03-01T03:57:07;100411.34;;;1.33;66.34
6216;BME280;3141;49.234;9.326;2023-03-01T03:57:50;100414.19;;;1.29;66.34
6216;BME280;3141;49.234;9.326;2023-03-01T03:58:33;100410.91;;;1.25;66.91
6216;BME280;3141;49.234;9.326;2023-03-01T03:59:15;100409.38;;;1.21;66.73
6216;BME280;3141;49.234;9.326;2023-03-01T03:59:58;100406.63;;;1.24;66.71
6216;BME280;3141;49.234;9.326;2023-03-01T04:00:42;100403.88;;;1.27;66.30
6216;BME280;3141;49.234;9.326;2023-03-01T04:01:25;100417.09;;;1.23;66.16
6216;BME280;3141;49.234;9.326;2023-03-01T04:02:07;100406.84;;;1.19;66.48
6216;BME280;3141;49.234;9.326;2023-03-01T04:02:51;100411.97;;;1.21;66.37
6216;BME280;3141;49.234;9.326;2023-03-01T04:03:34;100410.06;;;1.25;66.53
6216;BME280;3141;49.234;9.326;2023-03-01T04:04:17;100410.22;;;1.22;66.48
6216;BME280;3141;49.234;9.326;2023-03-01T04:05:00;100413.69;;;1.22;66.60
6216;BME280;3141;49.234;9.326;2023-03-01T04:05:43;100411.97;;;1.21;66.98
6216;BME280;3141;49.234;9.326;2023-03-01T04:06:25;100411.38;;;1.16;67.60
6216;BME280;3141;49.234;9.326;2023-03-01T04:07:07;100405.66;;;1.09;67.73
6216;BME280;3141;49.234;9.326;2023-03-01T04:07:50;100410.34;;;1.03;67.90